LVMDE SABE-SAME
Flight info
| Callsign | LVMDE |
|---|---|
| Flight time | 1h 19m |
| Altitude | 40000 |
| Route | PAL9 NEPIS DCT NIN UL405 PAPIR PAPIR3Q |
| Aircraft | GLF6/M-SBDE2E3FGHIJ1J4J5P2RWXYZ/LB2D1G1 |
Departure
| Time | 2026-05-08 20:29 |
|---|---|
| Airport | Aeroparque Jorge Newbery (SABE) |
Arrival
| Time | 2026-05-08 21:49 |
|---|---|
| Airport | Governor Francisco Gabrielli International Airport (SAME) |
| Time | Latitude | Longitude | Altitude | Speed | Heading |
|---|---|---|---|---|---|
| 2026-05-08 20:14 | -34.56296 | -58.41216 | 27 ft | 0 kts | 213° |
| 2026-05-08 20:26 | -34.56301 | -58.41219 | 27 ft | 1 kts | 201° |
| 2026-05-08 20:26 | -34.56308 | -58.41215 | 27 ft | 1 kts | 143° |
| 2026-05-08 20:26 | -34.56313 | -58.41196 | 27 ft | 3 kts | 89° |
| 2026-05-08 20:26 | -34.56294 | -58.41167 | 27 ft | 5 kts | 27° |
| 2026-05-08 20:27 | -34.56281 | -58.41157 | 27 ft | 0 kts | 35° |
| 2026-05-08 20:28 | -34.56277 | -58.41153 | 27 ft | 2 kts | 35° |
| 2026-05-08 20:28 | -34.56258 | -58.41138 | 27 ft | 5 kts | 34° |
| 2026-05-08 20:28 | -34.56227 | -58.41111 | 27 ft | 8 kts | 36° |
| 2026-05-08 20:29 | -34.56163 | -58.41140 | 27 ft | 22 kts | 302° |
| 2026-05-08 20:29 | -34.55835 | -58.41729 | 31 ft | 143 kts | 301° |
| 2026-05-08 20:29 | -34.55133 | -58.42958 | 503 ft | 209 kts | 301° |
| 2026-05-08 20:29 | -34.54199 | -58.44506 | 1209 ft | 223 kts | 311° |
| 2026-05-08 20:30 | -34.52776 | -58.45247 | 1760 ft | 244 kts | 355° |
| 2026-05-08 20:30 | -34.51148 | -58.44676 | 2462 ft | 262 kts | 29° |
| 2026-05-08 20:30 | -34.49732 | -58.43441 | 3124 ft | 266 kts | 38° |
| 2026-05-08 20:30 | -34.48354 | -58.41937 | 3797 ft | 273 kts | 49° |
| 2026-05-08 20:31 | -34.47640 | -58.39849 | 4429 ft | 279 kts | 84° |
| 2026-05-08 20:31 | -34.48011 | -58.37583 | 5092 ft | 277 kts | 120° |
| 2026-05-08 20:31 | -34.49390 | -58.35986 | 5953 ft | 288 kts | 158° |
| 2026-05-08 20:31 | -34.51223 | -58.35793 | 7884 ft | 270 kts | 194° |
| 2026-05-08 20:32 | -34.52778 | -58.36847 | 9531 ft | 274 kts | 228° |
| 2026-05-08 20:32 | -34.53599 | -58.38863 | 11267 ft | 274 kts | 258° |
| 2026-05-08 20:32 | -34.53831 | -58.41175 | 12277 ft | 292 kts | 266° |
| 2026-05-08 20:32 | -34.53933 | -58.43658 | 13443 ft | 301 kts | 267° |
| 2026-05-08 20:33 | -34.54018 | -58.46122 | 15081 ft | 293 kts | 267° |
| 2026-05-08 20:33 | -34.54098 | -58.48562 | 16236 ft | 300 kts | 267° |
| 2026-05-08 20:33 | -34.54179 | -58.51063 | 17497 ft | 303 kts | 267° |
| 2026-05-08 20:33 | -34.54258 | -58.53584 | 18848 ft | 303 kts | 268° |
| 2026-05-08 20:34 | -34.54338 | -58.56137 | 20061 ft | 307 kts | 268° |
| 2026-05-08 20:34 | -34.54417 | -58.58711 | 21312 ft | 310 kts | 268° |
| 2026-05-08 20:34 | -34.54576 | -58.63889 | 23714 ft | 315 kts | 268° |
| 2026-05-08 20:35 | -34.54655 | -58.66530 | 24828 ft | 318 kts | 269° |
| 2026-05-08 20:35 | -34.54736 | -58.69201 | 25917 ft | 321 kts | 269° |
| 2026-05-08 20:35 | -34.54816 | -58.71923 | 26960 ft | 324 kts | 269° |
| 2026-05-08 20:35 | -34.54898 | -58.74671 | 27935 ft | 328 kts | 269° |
| 2026-05-08 20:36 | -34.54979 | -58.77434 | 28893 ft | 331 kts | 269° |
| 2026-05-08 20:36 | -34.55060 | -58.80229 | 29820 ft | 333 kts | 269° |
| 2026-05-08 20:36 | -34.55140 | -58.82998 | 30630 ft | 338 kts | 270° |
| 2026-05-08 20:36 | -34.55222 | -58.85854 | 31391 ft | 343 kts | 270° |
| 2026-05-08 20:37 | -34.55304 | -58.88761 | 32173 ft | 347 kts | 270° |
| 2026-05-08 20:37 | -34.55386 | -58.91688 | 32914 ft | 351 kts | 271° |
| 2026-05-08 20:37 | -34.55470 | -58.94689 | 33612 ft | 356 kts | 271° |
| 2026-05-08 20:37 | -34.55552 | -58.97684 | 34293 ft | 360 kts | 271° |
| 2026-05-08 20:38 | -34.55636 | -59.00721 | 34892 ft | 366 kts | 271° |
| 2026-05-08 20:38 | -34.55720 | -59.03838 | 35424 ft | 372 kts | 271° |
| 2026-05-08 20:38 | -34.55804 | -59.06964 | 36027 ft | 377 kts | 271° |
| 2026-05-08 20:38 | -34.55889 | -59.10141 | 36650 ft | 380 kts | 271° |
| 2026-05-08 20:39 | -34.55975 | -59.13409 | 37138 ft | 386 kts | 271° |
| 2026-05-08 20:39 | -34.56060 | -59.16695 | 37634 ft | 391 kts | 271° |
| 2026-05-08 20:39 | -34.56146 | -59.19973 | 38156 ft | 395 kts | 271° |
| 2026-05-08 20:39 | -34.56231 | -59.23318 | 38592 ft | 400 kts | 271° |
| 2026-05-08 20:40 | -34.56317 | -59.26714 | 39090 ft | 402 kts | 271° |
| 2026-05-08 20:40 | -34.56402 | -59.30110 | 39684 ft | 402 kts | 271° |
| 2026-05-08 20:40 | -34.56487 | -59.33576 | 39740 ft | 416 kts | 271° |
| 2026-05-08 20:40 | -34.56574 | -59.37138 | 39783 ft | 428 kts | 270° |
| 2026-05-08 20:41 | -34.56663 | -59.40816 | 39781 ft | 440 kts | 270° |
| 2026-05-08 20:41 | -34.56842 | -59.48384 | 39782 ft | 459 kts | 270° |
| 2026-05-08 20:42 | -34.57022 | -59.56124 | 39743 ft | 463 kts | 270° |
| 2026-05-08 20:42 | -34.57042 | -59.63955 | 39744 ft | 462 kts | 273° |
| 2026-05-08 20:43 | -34.56906 | -59.71759 | 39752 ft | 462 kts | 273° |
| 2026-05-08 20:43 | -34.56763 | -59.79544 | 39753 ft | 462 kts | 273° |
| 2026-05-08 20:44 | -34.56616 | -59.87291 | 39752 ft | 461 kts | 273° |
| 2026-05-08 20:44 | -34.56463 | -59.95111 | 39751 ft | 461 kts | 273° |
| 2026-05-08 20:45 | -34.56306 | -60.02885 | 39750 ft | 461 kts | 273° |
| 2026-05-08 20:45 | -34.56143 | -60.10667 | 39749 ft | 461 kts | 273° |
| 2026-05-08 20:46 | -34.55976 | -60.18453 | 39748 ft | 461 kts | 273° |
| 2026-05-08 20:46 | -34.55803 | -60.26234 | 39748 ft | 461 kts | 273° |
| 2026-05-08 20:47 | -34.55627 | -60.33996 | 39781 ft | 461 kts | 273° |
| 2026-05-08 20:47 | -34.55444 | -60.41795 | 39816 ft | 466 kts | 273° |
| 2026-05-08 20:48 | -34.55255 | -60.49662 | 39848 ft | 464 kts | 273° |
| 2026-05-08 20:48 | -34.55071 | -60.57104 | 39850 ft | 462 kts | 273° |
| 2026-05-08 20:49 | -34.54875 | -60.64877 | 39850 ft | 462 kts | 273° |
| 2026-05-08 20:49 | -34.54673 | -60.72655 | 39861 ft | 462 kts | 274° |
| 2026-05-08 20:50 | -34.54468 | -60.80378 | 39861 ft | 461 kts | 274° |
| 2026-05-08 20:50 | -34.54257 | -60.88114 | 39860 ft | 461 kts | 274° |
| 2026-05-08 20:51 | -34.53703 | -60.95710 | 39871 ft | 460 kts | 280° |
| 2026-05-08 20:51 | -34.52559 | -61.03466 | 39858 ft | 464 kts | 281° |
| 2026-05-08 20:52 | -34.51360 | -61.11236 | 39857 ft | 470 kts | 281° |
| 2026-05-08 20:52 | -34.50199 | -61.18711 | 39856 ft | 474 kts | 281° |
| 2026-05-08 20:53 | -34.48959 | -61.26669 | 39856 ft | 478 kts | 281° |
| 2026-05-08 20:53 | -34.47723 | -61.34560 | 39855 ft | 478 kts | 281° |
| 2026-05-08 20:54 | -34.46473 | -61.42503 | 39854 ft | 478 kts | 281° |
| 2026-05-08 20:54 | -34.45233 | -61.50355 | 39853 ft | 478 kts | 281° |
| 2026-05-08 20:55 | -34.43976 | -61.58252 | 39852 ft | 478 kts | 281° |
| 2026-05-08 20:55 | -34.42712 | -61.66134 | 39854 ft | 477 kts | 282° |
| 2026-05-08 20:56 | -34.41445 | -61.74004 | 39860 ft | 478 kts | 282° |
| 2026-05-08 20:56 | -34.40176 | -61.81856 | 39859 ft | 477 kts | 282° |
| 2026-05-08 20:57 | -34.38892 | -61.89766 | 39858 ft | 477 kts | 282° |
| 2026-05-08 20:57 | -34.37616 | -61.97587 | 39858 ft | 477 kts | 282° |
| 2026-05-08 20:58 | -34.36321 | -62.05500 | 39857 ft | 477 kts | 282° |
| 2026-05-08 20:58 | -34.35029 | -62.13353 | 39856 ft | 477 kts | 282° |
| 2026-05-08 20:59 | -34.33731 | -62.21215 | 39852 ft | 477 kts | 282° |
| 2026-05-08 20:59 | -34.32434 | -62.29034 | 39842 ft | 477 kts | 282° |
| 2026-05-08 21:00 | -34.31121 | -62.36919 | 39833 ft | 477 kts | 282° |
| 2026-05-08 21:00 | -34.29806 | -62.44781 | 39826 ft | 477 kts | 282° |
| 2026-05-08 21:01 | -34.28492 | -62.52610 | 39825 ft | 477 kts | 282° |
| 2026-05-08 21:01 | -34.27173 | -62.60433 | 39824 ft | 477 kts | 282° |
| 2026-05-08 21:02 | -34.25843 | -62.68282 | 39833 ft | 477 kts | 282° |
| 2026-05-08 21:02 | -34.24507 | -62.76143 | 39832 ft | 477 kts | 282° |
| 2026-05-08 21:03 | -34.23177 | -62.83935 | 39834 ft | 477 kts | 282° |
| 2026-05-08 21:03 | -34.21831 | -62.91785 | 39839 ft | 478 kts | 282° |
| 2026-05-08 21:04 | -34.20480 | -62.99636 | 39846 ft | 481 kts | 282° |
| 2026-05-08 21:04 | -34.19108 | -63.07581 | 39853 ft | 483 kts | 281° |
| 2026-05-08 21:05 | -34.17734 | -63.15506 | 39862 ft | 485 kts | 281° |
| 2026-05-08 21:05 | -34.16348 | -63.23465 | 39882 ft | 485 kts | 281° |
| 2026-05-08 21:06 | -34.14954 | -63.31438 | 39899 ft | 485 kts | 281° |
| 2026-05-08 21:06 | -34.13495 | -63.39362 | 39909 ft | 485 kts | 282° |
| 2026-05-08 21:07 | -34.11946 | -63.47259 | 39908 ft | 485 kts | 282° |
| 2026-05-08 21:07 | -34.10379 | -63.55206 | 39907 ft | 485 kts | 282° |
| 2026-05-08 21:08 | -34.08820 | -63.63088 | 39907 ft | 485 kts | 282° |
| 2026-05-08 21:08 | -34.07255 | -63.70970 | 39914 ft | 485 kts | 283° |
| 2026-05-08 21:09 | -34.05677 | -63.78894 | 39913 ft | 485 kts | 283° |
| 2026-05-08 21:09 | -34.04101 | -63.86774 | 39913 ft | 485 kts | 283° |
| 2026-05-08 21:10 | -34.02523 | -63.94674 | 39912 ft | 485 kts | 283° |
| 2026-05-08 21:10 | -34.00940 | -64.02570 | 39911 ft | 485 kts | 283° |
| 2026-05-08 21:11 | -33.99354 | -64.10457 | 39911 ft | 485 kts | 283° |
| 2026-05-08 21:11 | -33.97757 | -64.18368 | 39910 ft | 485 kts | 283° |
| 2026-05-08 21:12 | -33.96157 | -64.26263 | 39909 ft | 485 kts | 283° |
| 2026-05-08 21:12 | -33.94548 | -64.34177 | 39910 ft | 485 kts | 283° |
| 2026-05-08 21:13 | -33.92934 | -64.42088 | 39926 ft | 485 kts | 283° |
| 2026-05-08 21:13 | -33.91317 | -64.49989 | 39942 ft | 485 kts | 283° |
| 2026-05-08 21:14 | -33.89746 | -64.57629 | 39975 ft | 485 kts | 283° |
| 2026-05-08 21:14 | -33.88064 | -64.65783 | 39977 ft | 486 kts | 283° |
| 2026-05-08 21:15 | -33.86450 | -64.73580 | 39986 ft | 486 kts | 283° |
| 2026-05-08 21:15 | -33.84814 | -64.81454 | 39993 ft | 486 kts | 283° |
| 2026-05-08 21:16 | -33.83170 | -64.89327 | 39993 ft | 489 kts | 282° |
| 2026-05-08 21:16 | -33.81503 | -64.97291 | 39991 ft | 494 kts | 281° |
| 2026-05-08 21:17 | -33.79810 | -65.05353 | 39990 ft | 501 kts | 280° |
| 2026-05-08 21:17 | -33.78099 | -65.13477 | 39990 ft | 503 kts | 280° |
| 2026-05-08 21:18 | -33.76379 | -65.21607 | 39990 ft | 503 kts | 280° |
| 2026-05-08 21:18 | -33.74652 | -65.29739 | 39989 ft | 502 kts | 280° |
| 2026-05-08 21:19 | -33.72914 | -65.37864 | 39988 ft | 502 kts | 281° |
| 2026-05-08 21:19 | -33.71039 | -65.45917 | 39989 ft | 502 kts | 282° |
| 2026-05-08 21:20 | -33.69134 | -65.54019 | 39988 ft | 502 kts | 282° |
| 2026-05-08 21:20 | -33.67222 | -65.62125 | 39988 ft | 502 kts | 282° |
| 2026-05-08 21:21 | -33.65320 | -65.70163 | 39994 ft | 503 kts | 282° |
| 2026-05-08 21:21 | -33.63403 | -65.78237 | 39992 ft | 503 kts | 282° |
| 2026-05-08 21:22 | -33.61489 | -65.86278 | 39975 ft | 503 kts | 282° |
| 2026-05-08 21:22 | -33.59559 | -65.94353 | 39956 ft | 503 kts | 282° |
| 2026-05-08 21:23 | -33.57632 | -66.02393 | 39939 ft | 502 kts | 282° |
| 2026-05-08 21:23 | -33.55691 | -66.10471 | 39938 ft | 502 kts | 282° |
| 2026-05-08 21:23 | -33.54751 | -66.14354 | 39920 ft | 468 kts | 282° |
| 2026-05-08 21:24 | -33.53885 | -66.17937 | 39855 ft | 436 kts | 282° |
| 2026-05-08 21:24 | -33.52216 | -66.24860 | 39753 ft | 435 kts | 282° |
| 2026-05-08 21:25 | -33.50527 | -66.31829 | 39750 ft | 440 kts | 282° |
| 2026-05-08 21:25 | -33.49668 | -66.35363 | 39492 ft | 442 kts | 282° |
| 2026-05-08 21:25 | -33.48663 | -66.38806 | 39048 ft | 443 kts | 287° |
| 2026-05-08 21:25 | -33.47642 | -66.42260 | 38585 ft | 440 kts | 284° |
| 2026-05-08 21:26 | -33.46602 | -66.45686 | 38101 ft | 440 kts | 286° |
| 2026-05-08 21:26 | -33.45526 | -66.49111 | 37615 ft | 440 kts | 286° |
| 2026-05-08 21:26 | -33.44438 | -66.52545 | 37128 ft | 440 kts | 286° |
| 2026-05-08 21:26 | -33.43351 | -66.55971 | 36641 ft | 440 kts | 286° |
| 2026-05-08 21:27 | -33.42268 | -66.59384 | 36155 ft | 440 kts | 286° |
| 2026-05-08 21:27 | -33.41368 | -66.62817 | 35674 ft | 438 kts | 281° |
| 2026-05-08 21:27 | -33.40536 | -66.66341 | 35195 ft | 440 kts | 282° |
| 2026-05-08 21:27 | -33.39673 | -66.69882 | 34710 ft | 441 kts | 282° |
| 2026-05-08 21:28 | -33.38811 | -66.73389 | 34225 ft | 442 kts | 282° |
| 2026-05-08 21:28 | -33.37941 | -66.76923 | 33739 ft | 443 kts | 282° |
| 2026-05-08 21:28 | -33.37064 | -66.80482 | 33246 ft | 444 kts | 282° |
| 2026-05-08 21:28 | -33.36200 | -66.83976 | 32760 ft | 444 kts | 283° |
| 2026-05-08 21:29 | -33.35316 | -66.87551 | 32263 ft | 446 kts | 283° |
| 2026-05-08 21:29 | -33.34442 | -66.91081 | 31776 ft | 446 kts | 283° |
| 2026-05-08 21:29 | -33.33557 | -66.94650 | 31279 ft | 447 kts | 283° |
| 2026-05-08 21:29 | -33.32676 | -66.98196 | 30786 ft | 448 kts | 283° |
| 2026-05-08 21:30 | -33.31795 | -67.01728 | 30303 ft | 445 kts | 283° |
| 2026-05-08 21:30 | -33.30918 | -67.05251 | 29794 ft | 439 kts | 282° |
| 2026-05-08 21:30 | -33.30056 | -67.08706 | 29309 ft | 432 kts | 282° |
| 2026-05-08 21:30 | -33.29206 | -67.12115 | 28835 ft | 426 kts | 282° |
| 2026-05-08 21:31 | -33.28376 | -67.15435 | 28374 ft | 419 kts | 282° |
| 2026-05-08 21:31 | -33.27550 | -67.18737 | 27914 ft | 413 kts | 282° |
| 2026-05-08 21:31 | -33.26736 | -67.21986 | 27461 ft | 408 kts | 283° |
| 2026-05-08 21:31 | -33.25924 | -67.25216 | 27012 ft | 405 kts | 283° |
| 2026-05-08 21:32 | -33.25041 | -67.28416 | 26566 ft | 403 kts | 285° |
| 2026-05-08 21:32 | -33.24162 | -67.31532 | 26127 ft | 400 kts | 285° |
| 2026-05-08 21:32 | -33.23269 | -67.34684 | 25683 ft | 397 kts | 286° |
| 2026-05-08 21:32 | -33.22397 | -67.37761 | 25250 ft | 394 kts | 286° |
| 2026-05-08 21:33 | -33.21520 | -67.40850 | 24815 ft | 392 kts | 287° |
| 2026-05-08 21:33 | -33.20636 | -67.43959 | 24359 ft | 390 kts | 287° |
| 2026-05-08 21:33 | -33.19772 | -67.46999 | 23398 ft | 388 kts | 288° |
| 2026-05-08 21:33 | -33.18925 | -67.49972 | 22635 ft | 382 kts | 288° |
| 2026-05-08 21:34 | -33.18071 | -67.52966 | 22135 ft | 380 kts | 289° |
| 2026-05-08 21:34 | -33.17217 | -67.55954 | 21690 ft | 380 kts | 289° |
| 2026-05-08 21:34 | -33.16370 | -67.58917 | 21262 ft | 379 kts | 289° |
| 2026-05-08 21:34 | -33.15516 | -67.61902 | 20833 ft | 379 kts | 289° |
| 2026-05-08 21:35 | -33.14672 | -67.64851 | 20410 ft | 378 kts | 289° |
| 2026-05-08 21:35 | -33.13822 | -67.67814 | 19992 ft | 377 kts | 290° |
| 2026-05-08 21:35 | -33.12976 | -67.70761 | 19572 ft | 376 kts | 290° |
| 2026-05-08 21:35 | -33.12136 | -67.73711 | 19152 ft | 376 kts | 289° |
| 2026-05-08 21:36 | -33.11607 | -67.76752 | 18744 ft | 376 kts | 283° |
| 2026-05-08 21:36 | -33.11150 | -67.79820 | 18323 ft | 376 kts | 281° |
| 2026-05-08 21:36 | -33.10745 | -67.82894 | 17907 ft | 375 kts | 281° |
| 2026-05-08 21:36 | -33.10354 | -67.85975 | 17491 ft | 374 kts | 281° |
| 2026-05-08 21:37 | -33.09972 | -67.89014 | 17081 ft | 373 kts | 280° |
| 2026-05-08 21:37 | -33.09589 | -67.92061 | 16669 ft | 372 kts | 280° |
| 2026-05-08 21:37 | -33.09206 | -67.95099 | 16260 ft | 371 kts | 280° |
| 2026-05-08 21:37 | -33.08823 | -67.98134 | 15850 ft | 370 kts | 280° |
| 2026-05-08 21:38 | -33.08442 | -68.01153 | 15443 ft | 368 kts | 280° |
| 2026-05-08 21:38 | -33.08062 | -68.04148 | 15039 ft | 367 kts | 280° |
| 2026-05-08 21:38 | -33.07683 | -68.07137 | 14635 ft | 366 kts | 280° |
| 2026-05-08 21:38 | -33.07299 | -68.10162 | 14227 ft | 365 kts | 279° |
| 2026-05-08 21:39 | -33.06918 | -68.13149 | 13824 ft | 363 kts | 279° |
| 2026-05-08 21:39 | -33.06540 | -68.16112 | 13424 ft | 362 kts | 279° |
| 2026-05-08 21:39 | -33.06160 | -68.19083 | 13023 ft | 361 kts | 279° |
| 2026-05-08 21:39 | -33.05786 | -68.21997 | 12630 ft | 359 kts | 279° |
| 2026-05-08 21:40 | -33.05409 | -68.24944 | 12233 ft | 358 kts | 279° |
| 2026-05-08 21:40 | -33.05034 | -68.27853 | 11840 ft | 356 kts | 279° |
| 2026-05-08 21:40 | -33.04660 | -68.30760 | 11447 ft | 354 kts | 279° |
| 2026-05-08 21:41 | -33.03928 | -68.36432 | 10670 ft | 325 kts | 279° |
| 2026-05-08 21:41 | -33.03599 | -68.38972 | 10295 ft | 296 kts | 279° |
| 2026-05-08 21:41 | -33.03295 | -68.41322 | 9967 ft | 287 kts | 279° |
| 2026-05-08 21:41 | -33.02989 | -68.43668 | 9679 ft | 286 kts | 279° |
| 2026-05-08 21:42 | -33.02683 | -68.46018 | 9343 ft | 285 kts | 280° |
| 2026-05-08 21:42 | -33.02179 | -68.48277 | 8941 ft | 282 kts | 289° |
| 2026-05-08 21:42 | -33.01551 | -68.50473 | 8556 ft | 280 kts | 289° |
| 2026-05-08 21:42 | -33.00922 | -68.52676 | 8163 ft | 278 kts | 289° |
| 2026-05-08 21:43 | -33.00301 | -68.54854 | 7773 ft | 276 kts | 289° |
| 2026-05-08 21:43 | -32.99691 | -68.57001 | 7385 ft | 274 kts | 289° |
| 2026-05-08 21:43 | -32.99083 | -68.59147 | 6995 ft | 273 kts | 289° |
| 2026-05-08 21:43 | -32.98480 | -68.61288 | 6604 ft | 271 kts | 289° |
| 2026-05-08 21:44 | -32.97791 | -68.63350 | 6202 ft | 268 kts | 298° |
| 2026-05-08 21:44 | -32.96915 | -68.65278 | 5818 ft | 266 kts | 300° |
| 2026-05-08 21:44 | -32.96038 | -68.67191 | 5431 ft | 264 kts | 300° |
| 2026-05-08 21:44 | -32.95157 | -68.69120 | 5061 ft | 262 kts | 300° |
| 2026-05-08 21:45 | -32.94299 | -68.71007 | 5086 ft | 260 kts | 300° |
| 2026-05-08 21:45 | -32.93452 | -68.72870 | 5188 ft | 233 kts | 300° |
| 2026-05-08 21:45 | -32.92772 | -68.74390 | 4831 ft | 187 kts | 300° |
| 2026-05-08 21:45 | -32.92228 | -68.75650 | 4339 ft | 167 kts | 299° |
| 2026-05-08 21:46 | -32.91742 | -68.76845 | 3824 ft | 163 kts | 298° |
| 2026-05-08 21:46 | -32.91277 | -68.78043 | 3544 ft | 159 kts | 298° |
| 2026-05-08 21:46 | -32.90682 | -68.79140 | 3569 ft | 158 kts | 319° |
| 2026-05-08 21:46 | -32.89666 | -68.79573 | 3311 ft | 157 kts | 1° |
| 2026-05-08 21:47 | -32.88660 | -68.79433 | 2963 ft | 136 kts | 5° |
| 2026-05-08 21:47 | -32.87793 | -68.79353 | 2785 ft | 117 kts | 1° |
| 2026-05-08 21:47 | -32.86996 | -68.79350 | 2720 ft | 115 kts | 0° |
| 2026-05-08 21:47 | -32.86187 | -68.79349 | 2650 ft | 116 kts | 0° |
| 2026-05-08 21:48 | -32.85371 | -68.79336 | 2527 ft | 116 kts | 1° |
| 2026-05-08 21:48 | -32.84563 | -68.79310 | 2372 ft | 116 kts | 1° |
| 2026-05-08 21:48 | -32.83785 | -68.79289 | 2319 ft | 96 kts | 1° |
| 2026-05-08 21:48 | -32.83250 | -68.79290 | 2319 ft | 64 kts | 1° |
| 2026-05-08 21:49 | -32.82853 | -68.79282 | 2319 ft | 48 kts | 0° |
| 2026-05-08 21:49 | -32.82590 | -68.79281 | 2319 ft | 24 kts | 356° |
| 2026-05-08 21:49 | -32.82543 | -68.79361 | 2319 ft | 10 kts | 254° |
| 2026-05-08 21:49 | -32.82590 | -68.79434 | 2319 ft | 11 kts | 226° |
| 2026-05-08 21:50 | -32.82656 | -68.79501 | 2319 ft | 13 kts | 203° |
| 2026-05-08 21:50 | -32.82752 | -68.79504 | 2319 ft | 14 kts | 181° |
| 2026-05-08 21:50 | -32.82858 | -68.79504 | 2319 ft | 16 kts | 179° |
| 2026-05-08 21:50 | -32.82957 | -68.79506 | 2319 ft | 9 kts | 182° |
| 2026-05-08 21:51 | -32.82988 | -68.79559 | 2319 ft | 10 kts | 307° |
| 2026-05-08 21:51 | -32.82938 | -68.79614 | 2319 ft | 9 kts | 311° |
| 2026-05-08 21:51 | -32.82930 | -68.79681 | 2319 ft | 6 kts | 277° |
| 2026-05-08 21:51 | -32.82917 | -68.79728 | 2319 ft | 4 kts | 268° |
| 2026-05-08 21:52 | -32.82918 | -68.79763 | 2319 ft | 1 kts | 270° |
| 2026-05-08 21:52 | -32.82918 | -68.79767 | 2319 ft | 0 kts | 269° |